createdAt,value
2023-07-14T00:03:02.041Z,100141.75
2023-07-14T00:06:04.140Z,100144.28
2023-07-14T00:09:25.032Z,100144.59
2023-07-14T00:12:26.950Z,100133.50
2023-07-14T00:15:29.340Z,100146.84
2023-07-14T00:18:32.006Z,100147.84
2023-07-14T00:21:33.997Z,100151.34
2023-07-14T00:24:35.961Z,100147.44
2023-07-14T00:27:38.195Z,100135.06
2023-07-14T00:30:40.778Z,100130.12
2023-07-14T00:33:51.086Z,100122.78
2023-07-14T00:36:53.583Z,100130.69
2023-07-14T00:39:55.478Z,100127.72
2023-07-14T00:42:59.459Z,100123.34
2023-07-14T00:46:03.233Z,100121.22
2023-07-14T00:49:13.185Z,100123.19
2023-07-14T00:52:25.293Z,100127.81
2023-07-14T00:55:53.177Z,100131.47
2023-07-14T00:58:55.195Z,100133.56
2023-07-14T01:02:26.509Z,100129.47
2023-07-14T01:05:29.587Z,100133.69
2023-07-14T01:08:33.021Z,100131.16
2023-07-14T01:11:49.158Z,100138.59
2023-07-14T01:14:53.417Z,100141.28
2023-07-14T01:17:55.849Z,100134.22
2023-07-14T01:20:57.845Z,100128.72
2023-07-14T01:24:15.387Z,100116.94
2023-07-14T01:30:38.379Z,100113.75
2023-07-14T01:33:40.325Z,100113.06
2023-07-14T01:36:44.020Z,100118.25
2023-07-14T01:39:47.608Z,100117.84
2023-07-14T01:43:02.218Z,100113.91
2023-07-14T01:46:08.913Z,100120.06
2023-07-14T01:49:29.185Z,100115.56
2023-07-14T01:52:32.945Z,100126.22
2023-07-14T01:55:37.803Z,100124.81
2023-07-14T01:59:05.715Z,100124.28
2023-07-14T02:02:14.380Z,100121.44
2023-07-14T02:05:28.162Z,100121.66
2023-07-14T02:08:30.540Z,100126.75
2023-07-14T02:11:32.659Z,100128.47
2023-07-14T02:14:51.771Z,100126.94
2023-07-14T02:17:56.158Z,100130.97
2023-07-14T02:20:59.450Z,100128.47
2023-07-14T02:24:02.151Z,100126.88
2023-07-14T02:27:05.346Z,100129.41
2023-07-14T02:30:14.938Z,100136.38
2023-07-14T02:33:25.582Z,100138.09
2023-07-14T02:36:45.393Z,100134.41
2023-07-14T02:39:49.945Z,100139.75
2023-07-14T02:42:52.940Z,100148.97
2023-07-14T02:46:01.856Z,100151.06
2023-07-14T02:49:03.874Z,100156.03
2023-07-14T02:52:07.217Z,100166.13
2023-07-14T02:55:09.735Z,100172.87
2023-07-14T02:58:11.706Z,100175.91
2023-07-14T03:01:13.936Z,100191.28
2023-07-14T03:04:16.010Z,100175.53
2023-07-14T03:07:18.444Z,100176.37
2023-07-14T03:10:20.591Z,100189.25
2023-07-14T03:13:23.175Z,100186.72
2023-07-14T03:16:27.206Z,100196.91
2023-07-14T03:19:29.270Z,100192.47
2023-07-14T03:22:32.329Z,100206.75
2023-07-14T03:25:34.965Z,100204.81
2023-07-14T03:28:37.965Z,100201.16
2023-07-14T03:31:39.989Z,100194.72
2023-07-14T03:34:42.436Z,100187.25
2023-07-14T03:37:44.418Z,100183.84
2023-07-14T03:40:46.692Z,100189.78
2023-07-14T03:43:48.640Z,100178.00
2023-07-14T03:46:50.901Z,100179.22
2023-07-14T03:49:52.827Z,100174.03
2023-07-14T03:52:54.721Z,100179.22
2023-07-14T03:55:56.845Z,100181.16
2023-07-14T03:58:58.857Z,100176.81
2023-07-14T04:02:00.870Z,100187.56
2023-07-14T04:05:02.864Z,100190.75
2023-07-14T04:08:05.354Z,100188.22
2023-07-14T04:11:07.401Z,100202.72
2023-07-14T04:14:12.169Z,100192.81
2023-07-14T04:17:14.110Z,100196.47
2023-07-14T04:20:16.071Z,100200.56
2023-07-14T04:23:19.467Z,100189.78
2023-07-14T04:26:22.528Z,100195.56
2023-07-14T04:29:24.895Z,100191.81
2023-07-14T04:32:27.842Z,100190.72
2023-07-14T04:35:29.875Z,100194.84
2023-07-14T04:38:31.982Z,100198.38
2023-07-14T04:41:35.865Z,100194.16
2023-07-14T04:44:38.737Z,100192.78
2023-07-14T04:47:40.708Z,100189.78
2023-07-14T04:50:45.289Z,100189.28
2023-07-14T04:53:47.245Z,100181.91
2023-07-14T04:56:49.146Z,100186.94
2023-07-14T04:59:51.127Z,100201.06
2023-07-14T05:02:53.312Z,100206.00
2023-07-14T05:05:55.637Z,100206.41
2023-07-14T05:08:57.662Z,100204.84
2023-07-14T05:11:59.680Z,100206.41
2023-07-14T05:15:11.834Z,100210.28
2023-07-14T05:18:13.959Z,100213.37
2023-07-14T05:21:16.139Z,100214.31
2023-07-14T05:24:18.149Z,100221.25
2023-07-14T05:27:21.297Z,100225.75
2023-07-14T05:30:23.654Z,100224.13
2023-07-14T05:33:25.629Z,100222.22
2023-07-14T05:36:27.562Z,100223.37
2023-07-14T05:39:29.690Z,100228.75
2023-07-14T05:42:31.634Z,100225.12
2023-07-14T05:45:34.167Z,100235.31
2023-07-14T05:48:36.465Z,100228.84
2023-07-14T05:51:38.449Z,100231.81
2023-07-14T05:54:40.914Z,100228.47
2023-07-14T05:57:45.154Z,100231.03
2023-07-14T06:00:47.257Z,100224.53
2023-07-14T06:03:49.404Z,100223.13
2023-07-14T06:06:51.499Z,100227.34
2023-07-14T06:09:53.430Z,100228.19
2023-07-14T06:12:55.367Z,100229.88
2023-07-14T06:15:57.897Z,100231.91
2023-07-14T06:19:00.028Z,100240.78
2023-07-14T06:22:01.925Z,100233.06
2023-07-14T06:25:05.203Z,100232.22
2023-07-14T06:28:08.452Z,100234.38
2023-07-14T06:31:12.977Z,100234.69
2023-07-14T06:34:15.157Z,100232.41
2023-07-14T06:37:17.380Z,100227.00
2023-07-14T06:40:21.831Z,100236.69
2023-07-14T06:43:24.018Z,100240.69
2023-07-14T06:46:26.091Z,100230.16
2023-07-14T06:49:29.244Z,100229.31
2023-07-14T06:52:31.903Z,100232.12
2023-07-14T06:55:34.919Z,100228.25
2023-07-14T06:58:37.342Z,100230.09
2023-07-14T07:01:39.326Z,100222.44
2023-07-14T07:04:41.517Z,100220.66
2023-07-14T07:07:43.671Z,100225.12
2023-07-14T07:10:46.803Z,100220.66
2023-07-14T07:13:48.785Z,100224.13
2023-07-14T07:16:50.874Z,100218.34
2023-07-14T07:19:52.861Z,100228.06
2023-07-14T07:22:54.819Z,100229.56
2023-07-14T07:25:57.085Z,100229.53
2023-07-14T07:28:59.312Z,100226.91
2023-07-14T07:32:01.379Z,100236.78
2023-07-14T07:35:04.404Z,100232.84
2023-07-14T07:38:06.600Z,100227.53
2023-07-14T07:41:08.597Z,100234.47
2023-07-14T07:44:10.727Z,100229.50
2023-07-14T07:47:13.972Z,100234.91
2023-07-14T07:50:16.207Z,100230.28
2023-07-14T07:53:18.192Z,100233.59
2023-07-14T07:56:20.217Z,100235.31
2023-07-14T07:59:22.210Z,100234.88
2023-07-14T08:02:24.350Z,100237.81
2023-07-14T08:05:26.691Z,100237.09
2023-07-14T08:08:29.081Z,100235.44
2023-07-14T08:11:31.555Z,100230.69
2023-07-14T08:14:50.513Z,100228.94
2023-07-14T08:17:56.548Z,100218.66
2023-07-14T08:21:00.159Z,100225.50
2023-07-14T08:24:02.256Z,100225.03
2023-07-14T08:27:04.437Z,100218.06
2023-07-14T08:30:09.341Z,100219.47
2023-07-14T08:33:11.295Z,100221.22
2023-07-14T08:36:14.623Z,100215.41
2023-07-14T08:39:17.713Z,100215.94
2023-07-14T08:42:31.795Z,100215.53
2023-07-14T08:45:38.908Z,100217.81
2023-07-14T08:48:47.304Z,100220.19
2023-07-14T08:51:53.870Z,100220.91
2023-07-14T08:54:55.774Z,100226.91
2023-07-14T08:58:10.467Z,100226.66
2023-07-14T09:01:20.337Z,100222.44
2023-07-14T09:04:26.840Z,100218.72
2023-07-14T09:07:30.020Z,100221.47
2023-07-14T09:10:58.823Z,100224.56
2023-07-14T09:14:29.630Z,100225.59
2023-07-14T09:17:37.673Z,100215.69
2023-07-14T09:20:39.597Z,100224.47
2023-07-14T09:23:57.846Z,100221.53
2023-07-14T09:27:00.063Z,100218.34
2023-07-14T09:30:03.201Z,100215.28
2023-07-14T09:33:10.222Z,100214.16
2023-07-14T09:36:12.686Z,100211.97
2023-07-14T09:39:22.993Z,100206.16
2023-07-14T09:42:31.651Z,100203.84
2023-07-14T09:45:36.143Z,100203.16
2023-07-14T09:48:44.779Z,100205.78
2023-07-14T09:52:11.554Z,100191.75
2023-07-14T09:55:15.122Z,100199.16
2023-07-14T09:58:18.284Z,100190.00
2023-07-14T10:01:20.375Z,100198.31
2023-07-14T10:04:28.119Z,100192.25
2023-07-14T10:07:41.920Z,100186.06
2023-07-14T10:10:45.357Z,100179.78
2023-07-14T10:13:58.802Z,100178.06
2023-07-14T10:17:00.927Z,100180.50
2023-07-14T10:20:06.159Z,100172.66
2023-07-14T10:23:17.566Z,100162.09
2023-07-14T10:26:19.605Z,100158.63
2023-07-14T10:29:25.187Z,100157.97
2023-07-14T10:32:42.313Z,100154.12
2023-07-14T10:35:45.048Z,100149.16
2023-07-14T10:39:02.913Z,100147.31
2023-07-14T10:42:16.271Z,100142.03
2023-07-14T10:45:18.486Z,100144.97
2023-07-14T10:48:43.017Z,100136.47
2023-07-14T10:51:53.579Z,100131.03
2023-07-14T10:55:04.826Z,100125.16
2023-07-14T10:58:20.174Z,100124.09
2023-07-14T11:01:32.659Z,100112.47
2023-07-14T11:04:44.241Z,100117.28
2023-07-14T11:07:46.458Z,100115.22
2023-07-14T11:10:52.224Z,100107.25
2023-07-14T11:14:22.093Z,100101.22
2023-07-14T11:17:46.033Z,100101.75
2023-07-14T11:20:53.786Z,100097.41
2023-07-14T11:24:01.467Z,100092.59
2023-07-14T11:27:29.515Z,100091.37
2023-07-14T11:30:37.218Z,100085.22
2023-07-14T11:33:50.824Z,100067.84
2023-07-14T11:36:59.993Z,100082.44
2023-07-14T11:40:08.154Z,100074.34
2023-07-14T11:43:19.533Z,100072.84
2023-07-14T11:46:23.690Z,100087.78
2023-07-14T11:49:46.151Z,100076.22
2023-07-14T11:53:12.906Z,100071.31
2023-07-14T11:56:27.371Z,100079.94
2023-07-14T11:59:31.639Z,100074.59
2023-07-14T12:02:36.603Z,100082.00
2023-07-14T12:05:41.105Z,100077.34
2023-07-14T12:08:43.488Z,100077.13
2023-07-14T12:11:58.228Z,100068.81
2023-07-14T12:15:00.285Z,100050.63
2023-07-14T12:18:38.143Z,100053.56
2023-07-14T12:21:59.133Z,100059.09
2023-07-14T12:25:01.257Z,100052.06
2023-07-14T12:28:04.920Z,100049.06
2023-07-14T12:31:14.578Z,100048.62
2023-07-14T12:34:24.768Z,100044.91
2023-07-14T12:37:26.774Z,100042.88
2023-07-14T12:40:33.112Z,100044.19
2023-07-14T12:43:42.116Z,100032.16
2023-07-14T12:46:44.225Z,100032.84
2023-07-14T12:49:51.875Z,100031.94
2023-07-14T12:52:54.196Z,100030.19
2023-07-14T12:55:56.132Z,100039.78
2023-07-14T12:59:02.655Z,100031.28
2023-07-14T13:02:05.273Z,100025.22
2023-07-14T13:05:14.977Z,100026.25
2023-07-14T13:08:22.071Z,100020.19
2023-07-14T13:11:29.349Z,100018.91
2023-07-14T13:14:47.842Z,100016.09
2023-07-14T13:17:51.317Z,100015.38
2023-07-14T13:20:56.249Z,100012.91
2023-07-14T13:24:07.561Z,100003.97
2023-07-14T13:27:20.336Z,100000.72
2023-07-14T13:30:32.824Z,100003.16
2023-07-14T13:33:34.861Z,100002.38
2023-07-14T13:36:37.033Z,99998.09
2023-07-14T13:39:46.599Z,99994.31
2023-07-14T13:42:51.543Z,99984.50
2023-07-14T13:46:07.797Z,99977.91
2023-07-14T13:49:09.740Z,99979.69
2023-07-14T13:52:17.210Z,99979.25
2023-07-14T13:55:23.357Z,99974.34
2023-07-14T13:58:25.326Z,99968.28
2023-07-14T14:01:29.350Z,99963.53
2023-07-14T14:04:31.426Z,99966.59
2023-07-14T14:07:33.459Z,99966.97
2023-07-14T14:10:35.557Z,99962.75
2023-07-14T14:13:37.640Z,99962.31
2023-07-14T14:16:39.832Z,99958.38
2023-07-14T14:19:41.983Z,99959.56
2023-07-14T14:22:45.307Z,99953.44
2023-07-14T14:25:47.628Z,99948.16
2023-07-14T14:28:49.565Z,99946.81
2023-07-14T14:31:51.472Z,99934.31
2023-07-14T14:34:58.948Z,99927.19
2023-07-14T14:38:11.644Z,99923.66
2023-07-14T14:41:22.361Z,99925.06
2023-07-14T14:44:25.123Z,99916.91
2023-07-14T14:47:27.174Z,99923.00
2023-07-14T14:50:29.284Z,99914.34
2023-07-14T14:53:35.582Z,99915.38
2023-07-14T14:56:42.190Z,99914.91
2023-07-14T14:59:46.597Z,99910.66
2023-07-14T15:02:52.659Z,99907.00
2023-07-14T15:05:54.854Z,99908.69
2023-07-14T15:08:56.849Z,99903.22
2023-07-14T15:11:59.048Z,99896.53
2023-07-14T15:15:01.119Z,99900.13
2023-07-14T15:18:03.751Z,99890.75
2023-07-14T15:21:14.601Z,99879.94
2023-07-14T15:24:16.686Z,99882.97
2023-07-14T15:27:27.282Z,99876.81
2023-07-14T15:30:31.952Z,99885.41
2023-07-14T15:33:33.999Z,99868.78
2023-07-14T15:36:35.995Z,99867.00
2023-07-14T15:39:37.974Z,99865.47
2023-07-14T15:42:39.973Z,99861.66
2023-07-14T15:45:42.121Z,99862.25
2023-07-14T15:48:47.409Z,99866.16
2023-07-14T15:51:49.403Z,99861.53
2023-07-14T15:54:51.499Z,99860.38
2023-07-14T15:57:53.486Z,99857.53
2023-07-14T16:00:58.072Z,99857.28
2023-07-14T16:04:02.460Z,99848.47
2023-07-14T16:07:05.233Z,99860.41
2023-07-14T16:10:13.236Z,99851.28
2023-07-14T16:13:18.614Z,99847.19
2023-07-14T16:16:20.906Z,99848.47
2023-07-14T16:19:22.979Z,99848.22
2023-07-14T16:22:25.428Z,99844.72
2023-07-14T16:25:30.009Z,99844.44
2023-07-14T16:28:42.477Z,99844.66
2023-07-14T16:31:44.396Z,99850.97
2023-07-14T16:34:47.703Z,99844.25
2023-07-14T16:37:52.385Z,99843.09
2023-07-14T16:40:54.349Z,99839.78
2023-07-14T16:43:57.583Z,99839.91
2023-07-14T16:47:03.968Z,99835.06
2023-07-14T16:50:11.155Z,99834.44
2023-07-14T16:53:17.172Z,99827.28
2023-07-14T16:56:19.186Z,99829.12
2023-07-14T16:59:21.562Z,99830.72
2023-07-14T17:02:26.202Z,99832.87
2023-07-14T17:05:35.746Z,99841.16
2023-07-14T17:08:43.188Z,99842.19
2023-07-14T17:11:45.619Z,99838.28
2023-07-14T17:14:47.850Z,99836.56
2023-07-14T17:17:50.246Z,99835.84
2023-07-14T17:20:53.632Z,99836.44
2023-07-14T17:23:57.782Z,99833.13
2023-07-14T17:27:00.867Z,99829.16
2023-07-14T17:30:21.398Z,99832.56
2023-07-14T17:33:29.634Z,99834.88
2023-07-14T17:36:39.871Z,99837.97
2023-07-14T17:39:47.625Z,99828.41
2023-07-14T17:42:50.739Z,99838.22
2023-07-14T17:45:52.780Z,99836.16
2023-07-14T17:48:57.680Z,99837.62
2023-07-14T17:52:00.314Z,99832.00
2023-07-14T17:55:02.242Z,99834.72
2023-07-14T17:58:11.695Z,99828.00
2023-07-14T18:01:17.085Z,99832.44
2023-07-14T18:04:22.072Z,99836.16
2023-07-14T18:07:24.270Z,99835.16
2023-07-14T18:10:28.949Z,99833.06
2023-07-14T18:13:41.147Z,99819.28
2023-07-14T18:16:43.262Z,99833.47
2023-07-14T18:19:45.330Z,99834.31
2023-07-14T18:22:49.118Z,99835.38
2023-07-14T18:25:51.213Z,99834.72
2023-07-14T18:28:53.256Z,99838.22
2023-07-14T18:31:56.470Z,99838.03
2023-07-14T18:35:01.305Z,99839.69
2023-07-14T18:38:06.537Z,99845.91
2023-07-14T18:41:17.944Z,99849.22
2023-07-14T18:44:19.985Z,99842.50
2023-07-14T18:47:22.014Z,99841.03
2023-07-14T18:50:24.070Z,99839.28
2023-07-14T18:53:27.744Z,99836.62
2023-07-14T18:56:29.894Z,99844.56
2023-07-14T18:59:31.960Z,99839.22
2023-07-14T19:02:34.955Z,99839.19
2023-07-14T19:05:37.044Z,99843.28
2023-07-14T19:08:39.424Z,99846.94
2023-07-14T19:11:43.145Z,99847.53
2023-07-14T19:14:45.180Z,99851.47
2023-07-14T19:17:49.281Z,99854.25
2023-07-14T19:20:57.698Z,99851.94
2023-07-14T19:24:00.826Z,99857.09
2023-07-14T19:27:02.969Z,99860.34
2023-07-14T19:30:13.396Z,99866.91
2023-07-14T19:33:18.985Z,99865.53
2023-07-14T19:36:21.716Z,99869.97
2023-07-14T19:39:23.980Z,99866.16
2023-07-14T19:42:26.932Z,99864.41
2023-07-14T19:45:30.168Z,99868.00
2023-07-14T19:48:32.203Z,99866.91
2023-07-14T19:51:34.805Z,99876.38
2023-07-14T19:54:36.859Z,99871.25
2023-07-14T19:57:39.427Z,99872.72
2023-07-14T20:00:44.929Z,99869.94
2023-07-14T20:03:48.559Z,99872.56
2023-07-14T20:06:50.749Z,99873.06
2023-07-14T20:12:59.173Z,99878.28
2023-07-14T20:16:01.359Z,99881.81
2023-07-14T20:19:03.529Z,99872.09
2023-07-14T20:22:14.656Z,99895.31
2023-07-14T20:25:18.976Z,99892.72
2023-07-14T20:28:24.560Z,99889.00
2023-07-14T20:31:26.893Z,99886.00
2023-07-14T20:34:28.935Z,99881.69
2023-07-14T20:37:31.839Z,99885.84
2023-07-14T20:40:33.886Z,99878.81
2023-07-14T20:43:35.875Z,99872.81
2023-07-14T20:46:41.544Z,99869.88
2023-07-14T20:49:46.000Z,99876.28
2023-07-14T20:52:49.363Z,99874.56
2023-07-14T20:55:56.371Z,99866.34
2023-07-14T20:58:58.941Z,99867.31
2023-07-14T21:02:00.923Z,99866.69
2023-07-14T21:05:03.167Z,99869.25
2023-07-14T21:08:24.020Z,99872.28
2023-07-14T21:11:28.265Z,99874.31
2023-07-14T21:14:30.174Z,99874.50
2023-07-14T21:17:32.155Z,99881.59
2023-07-14T21:20:34.379Z,99871.19
2023-07-14T21:23:37.141Z,99878.75
2023-07-14T21:26:39.060Z,99877.78
2023-07-14T21:29:41.536Z,99882.50
2023-07-14T21:32:43.612Z,99875.59
2023-07-14T21:35:46.647Z,99881.97
2023-07-14T21:38:48.530Z,99881.63
2023-07-14T21:41:51.974Z,99881.81
2023-07-14T21:44:54.027Z,99880.78
2023-07-14T21:47:56.160Z,99885.50
2023-07-14T21:51:02.071Z,99874.41
2023-07-14T21:54:04.705Z,99878.97
2023-07-14T21:57:10.713Z,99878.47
2023-07-14T22:00:18.852Z,99879.97
2023-07-14T22:03:22.541Z,99879.13
2023-07-14T22:06:26.253Z,99867.41
2023-07-14T22:09:28.595Z,99869.56
2023-07-14T22:12:30.599Z,99872.75
2023-07-14T22:15:32.559Z,99872.09
2023-07-14T22:18:45.751Z,99875.81
2023-07-14T22:21:49.080Z,99876.47
2023-07-14T22:24:51.166Z,99870.25
2023-07-14T22:27:53.233Z,99866.88
2023-07-14T22:30:56.349Z,99866.91
2023-07-14T22:34:00.865Z,99859.62
2023-07-14T22:37:02.795Z,99857.09
2023-07-14T22:40:05.385Z,99859.47
2023-07-14T22:43:13.086Z,99850.19
2023-07-14T22:46:15.320Z,99855.91
2023-07-14T22:49:17.597Z,99846.69
2023-07-14T22:52:19.544Z,99844.97
2023-07-14T22:55:22.488Z,99843.44
2023-07-14T22:58:26.906Z,99841.63
2023-07-14T23:01:32.536Z,99841.28
2023-07-14T23:04:34.675Z,99832.69
2023-07-14T23:07:36.671Z,99834.53
2023-07-14T23:10:47.369Z,99841.22
2023-07-14T23:13:49.908Z,99834.81
2023-07-14T23:16:51.945Z,99833.16
2023-07-14T23:19:53.848Z,99835.69
2023-07-14T23:22:55.877Z,99831.16
2023-07-14T23:25:57.879Z,99835.69
2023-07-14T23:28:59.938Z,99833.69
2023-07-14T23:32:02.232Z,99835.34
2023-07-14T23:35:05.520Z,99836.72
2023-07-14T23:38:08.605Z,99844.44
2023-07-14T23:41:12.969Z,99836.84
2023-07-14T23:44:19.679Z,99832.31
2023-07-14T23:47:21.558Z,99833.84
2023-07-14T23:50:25.852Z,99825.47
2023-07-14T23:53:35.070Z,99830.84
2023-07-14T23:56:38.088Z,99832.50
2023-07-14T23:59:40.394Z,99841.56
